createdAt,value
2019-02-22T00:00:30.334Z,103116.66
2019-02-22T00:01:31.155Z,103116.55
2019-02-22T00:02:31.780Z,103116.56
2019-02-22T00:03:31.870Z,103116.48
2019-02-22T00:04:32.757Z,103117.31
2019-02-22T00:05:33.297Z,103118.00
2019-02-22T00:06:33.784Z,103118.59
2019-02-22T00:07:34.312Z,103118.83
2019-02-22T00:08:34.315Z,103119.25
2019-02-22T00:09:34.905Z,103119.17
2019-02-22T00:10:35.385Z,103119.70
2019-02-22T00:11:36.118Z,103120.02
2019-02-22T00:12:35.581Z,103120.70
2019-02-22T00:13:37.297Z,103121.03
2019-02-22T00:14:37.992Z,103121.55
2019-02-22T00:15:38.907Z,103121.47
2019-02-22T00:16:39.495Z,103121.95
2019-02-22T00:17:40.100Z,103122.22
2019-02-22T00:18:40.756Z,103122.98
2019-02-22T00:19:41.346Z,103123.81
2019-02-22T00:20:42.024Z,103124.41
2019-02-22T00:21:42.944Z,103125.27
2019-02-22T00:22:43.712Z,103125.84
2019-02-22T00:23:43.216Z,103125.66
2019-02-22T00:24:44.928Z,103126.01
2019-02-22T00:25:45.696Z,103126.93
2019-02-22T00:26:46.515Z,103127.34
2019-02-22T00:27:47.041Z,103128.02
2019-02-22T00:28:47.819Z,103128.13
2019-02-22T00:29:48.238Z,103128.70
2019-02-22T00:30:48.757Z,103129.11
2019-02-22T00:31:49.582Z,103129.39
2019-02-22T00:32:50.301Z,103129.64
2019-02-22T00:33:51.072Z,103130.05
2019-02-22T00:34:52.124Z,103130.30
2019-02-22T00:35:51.679Z,103130.73
2019-02-22T00:36:52.186Z,103130.81
2019-02-22T00:37:52.625Z,103130.89
2019-02-22T00:38:54.354Z,103131.56
2019-02-22T00:39:54.953Z,103131.98
2019-02-22T00:40:55.680Z,103131.83
2019-02-22T00:41:56.664Z,103132.23
2019-02-22T00:42:05.708Z,103135.01
2019-02-22T00:43:07.163Z,103134.44
2019-02-22T00:44:07.819Z,103134.44
2019-02-22T00:45:08.584Z,103133.94
2019-02-22T00:46:09.165Z,103134.27
2019-02-22T00:47:09.402Z,103134.67
2019-02-22T00:48:10.031Z,103134.67
2019-02-22T00:49:10.549Z,103134.67
2019-02-22T00:50:11.342Z,103135.27
2019-02-22T00:51:11.877Z,103135.53
2019-02-22T00:52:12.452Z,103135.87
2019-02-22T00:53:13.041Z,103135.87
2019-02-22T00:54:12.496Z,103136.38
2019-02-22T00:55:14.016Z,103136.88
2019-02-22T00:56:14.666Z,103137.38
2019-02-22T00:57:14.847Z,103138.06
2019-02-22T00:58:15.632Z,103139.00
2019-02-22T00:59:16.304Z,103139.67
2019-02-22T01:00:16.936Z,103140.17
2019-02-22T01:01:16.735Z,103140.00
2019-02-22T01:02:18.397Z,103140.68
2019-02-22T01:03:19.208Z,103141.19
2019-02-22T01:04:19.948Z,103141.19
2019-02-22T01:05:19.925Z,103142.09
2019-02-22T01:06:20.524Z,103141.92
2019-02-22T01:07:21.416Z,103142.34
2019-02-22T01:08:21.995Z,103142.78
2019-02-22T01:09:22.636Z,103143.79
2019-02-22T01:10:30.746Z,103144.30
2019-02-22T01:11:23.054Z,103144.97
2019-02-22T01:12:24.809Z,103145.64
2019-02-22T01:13:25.280Z,103146.48
2019-02-22T01:14:25.793Z,103147.49
2019-02-22T01:15:26.381Z,103147.73
2019-02-22T01:16:27.127Z,103148.58
2019-02-22T01:17:27.584Z,103149.25
2019-02-22T01:18:27.844Z,103149.59
2019-02-22T01:19:28.437Z,103150.00
2019-02-22T01:20:29.036Z,103151.13
2019-02-22T01:21:29.057Z,103152.30
2019-02-22T01:22:29.783Z,103153.22
2019-02-22T01:23:30.447Z,103154.48
2019-02-22T01:24:31.238Z,103155.73
2019-02-22T01:25:31.883Z,103157.02
2019-02-22T01:26:32.565Z,103157.77
2019-02-22T01:27:33.170Z,103158.52
2019-02-22T01:27:42.216Z,103174.61
2019-02-22T01:28:43.481Z,103174.01
2019-02-22T01:29:44.129Z,103174.34
2019-02-22T01:30:44.633Z,103174.52
2019-02-22T01:31:45.310Z,103174.08
2019-02-22T01:32:45.938Z,103174.68
2019-02-22T01:33:46.485Z,103175.02
2019-02-22T01:34:47.021Z,103174.85
2019-02-22T01:35:47.547Z,103175.02
2019-02-22T01:36:48.053Z,103175.36
2019-02-22T01:37:49.658Z,103175.95
2019-02-22T01:38:48.182Z,103177.22
2019-02-22T01:39:49.639Z,103177.39
2019-02-22T01:40:50.313Z,103177.80
2019-02-22T01:41:50.881Z,103178.13
2019-02-22T01:42:51.447Z,103178.73
2019-02-22T01:43:52.004Z,103178.22
2019-02-22T01:44:52.916Z,103178.48
2019-02-22T01:45:53.515Z,103178.15
2019-02-22T01:46:54.143Z,103177.70
2019-02-22T01:47:54.825Z,103177.96
2019-02-22T01:48:55.328Z,103177.45
2019-02-22T01:49:55.802Z,103177.72
2019-02-22T01:50:56.636Z,103177.89
2019-02-22T01:51:56.205Z,103178.22
2019-02-22T01:52:57.688Z,103178.91
2019-02-22T01:53:58.263Z,103180.00
2019-02-22T01:54:58.983Z,103180.17
2019-02-22T01:55:59.624Z,103180.23
2019-02-22T01:57:00.176Z,103180.66
2019-02-22T01:58:01.074Z,103180.59
2019-02-22T01:59:01.602Z,103180.08
2019-02-22T02:00:02.127Z,103180.17
2019-02-22T02:01:02.901Z,103179.84
2019-02-22T02:02:03.313Z,103180.41
2019-02-22T02:03:04.019Z,103180.73
2019-02-22T02:04:04.989Z,103181.25
2019-02-22T02:05:05.586Z,103180.68
2019-02-22T02:06:06.313Z,103181.19
2019-02-22T02:07:06.879Z,103180.75
2019-02-22T02:08:07.394Z,103180.42
2019-02-22T02:09:07.954Z,103180.08
2019-02-22T02:10:08.546Z,103179.23
2019-02-22T02:11:09.074Z,103178.73
2019-02-22T02:12:09.126Z,103178.23
2019-02-22T02:13:09.951Z,103177.80
2019-02-22T02:13:19.002Z,103167.52
2019-02-22T02:14:20.522Z,103167.45
2019-02-22T02:15:21.128Z,103167.69
2019-02-22T02:16:21.830Z,103167.69
2019-02-22T02:17:22.268Z,103167.69
2019-02-22T02:18:22.755Z,103167.69
2019-02-22T02:19:23.425Z,103167.69
2019-02-22T02:20:24.020Z,103168.28
2019-02-22T02:21:23.624Z,103168.95
2019-02-22T02:22:25.151Z,103169.80
2019-02-22T02:23:25.680Z,103170.64
2019-02-22T02:24:26.358Z,103171.22
2019-02-22T02:25:26.974Z,103171.56
2019-02-22T02:26:27.466Z,103171.82
2019-02-22T02:27:28.043Z,103172.59
2019-02-22T02:28:28.554Z,103172.48
2019-02-22T02:29:29.305Z,103172.84
2019-02-22T02:30:29.900Z,103172.98
2019-02-22T02:31:30.354Z,103173.44
2019-02-22T02:32:30.793Z,103174.53
2019-02-22T02:33:31.293Z,103175.45
2019-02-22T02:34:31.863Z,103176.20
2019-02-22T02:35:32.414Z,103176.05
2019-02-22T02:36:33.059Z,103176.22
2019-02-22T02:37:33.483Z,103176.95
2019-02-22T02:38:33.928Z,103177.47
2019-02-22T02:39:34.780Z,103178.14
2019-02-22T02:40:35.231Z,103178.23
2019-02-22T02:41:35.781Z,103178.81
2019-02-22T02:42:36.015Z,103179.58
2019-02-22T02:43:35.695Z,103179.84
2019-02-22T02:44:37.405Z,103180.17
2019-02-22T02:45:38.037Z,103180.19
2019-02-22T02:46:38.615Z,103180.09
2019-02-22T02:47:38.148Z,103180.45
2019-02-22T02:48:39.923Z,103181.20
2019-02-22T02:49:40.697Z,103181.52
2019-02-22T02:50:41.327Z,103181.55
2019-02-22T02:51:42.055Z,103182.20
2019-02-22T02:52:42.728Z,103182.80
2019-02-22T02:53:43.213Z,103183.11
2019-02-22T02:54:43.808Z,103183.64
2019-02-22T02:55:44.417Z,103184.47
2019-02-22T02:56:46.235Z,103185.77
2019-02-22T02:57:44.870Z,103186.63
2019-02-22T02:58:46.421Z,103187.62
2019-02-22T02:59:46.038Z,103187.72
2019-02-22T03:00:47.771Z,103188.80
2019-02-22T03:00:57.427Z,103202.13
2019-02-22T03:01:57.973Z,103201.88
2019-02-22T03:02:59.536Z,103201.97
2019-02-22T03:03:59.833Z,103201.46
2019-02-22T03:05:00.825Z,103201.86
2019-02-22T03:06:01.500Z,103201.78
2019-02-22T03:07:02.084Z,103202.37
2019-02-22T03:08:02.613Z,103202.27
2019-02-22T03:09:03.124Z,103202.02
2019-02-22T03:10:03.565Z,103201.95
2019-02-22T03:11:04.383Z,103201.95
2019-02-22T03:12:04.997Z,103202.05
2019-02-22T03:13:04.495Z,103202.21
2019-02-22T03:14:05.934Z,103202.61
2019-02-22T03:15:06.375Z,103203.38
2019-02-22T03:16:06.870Z,103203.38
2019-02-22T03:17:07.636Z,103203.81
2019-02-22T03:18:08.179Z,103204.91
2019-02-22T03:19:08.695Z,103205.48
2019-02-22T03:20:09.597Z,103206.48
2019-02-22T03:21:10.102Z,103206.94
2019-02-22T03:22:10.609Z,103207.52
2019-02-22T03:23:11.120Z,103208.09
2019-02-22T03:24:11.681Z,103209.36
2019-02-22T03:25:12.220Z,103209.70
2019-02-22T03:26:12.917Z,103210.03
2019-02-22T03:27:13.490Z,103210.28
2019-02-22T03:28:14.120Z,103211.48
2019-02-22T03:29:14.752Z,103211.91
2019-02-22T03:30:15.381Z,103212.91
2019-02-22T03:31:16.246Z,103213.50
2019-02-22T03:32:16.704Z,103214.83
2019-02-22T03:33:17.308Z,103216.22
2019-02-22T03:34:16.785Z,103216.72
2019-02-22T03:35:18.547Z,103217.39
2019-02-22T03:36:19.228Z,103219.17
2019-02-22T03:37:19.995Z,103220.07
2019-02-22T03:38:20.859Z,103221.17
2019-02-22T03:39:21.432Z,103222.11
2019-02-22T03:40:21.968Z,103222.87
2019-02-22T03:41:32.183Z,103223.47
2019-02-22T03:42:22.036Z,103224.29
2019-02-22T03:43:23.680Z,103225.21
2019-02-22T03:44:24.424Z,103225.56
2019-02-22T03:45:25.284Z,103226.48
2019-02-22T03:46:25.883Z,103227.56
2019-02-22T03:47:26.512Z,103227.92
2019-02-22T03:48:27.373Z,103229.01
2019-02-22T03:49:28.244Z,103229.59
2019-02-22T03:49:37.263Z,103244.27
2019-02-22T03:50:38.939Z,103243.66
2019-02-22T03:51:39.477Z,103243.66
2019-02-22T03:52:39.602Z,103243.27
2019-02-22T03:53:40.382Z,103243.34
2019-02-22T03:54:41.014Z,103243.02
2019-02-22T03:55:41.682Z,103243.08
2019-02-22T03:56:42.256Z,103242.83
2019-02-22T03:57:43.066Z,103242.58
2019-02-22T03:58:43.583Z,103242.06
2019-02-22T03:59:44.156Z,103242.34
2019-02-22T04:00:44.685Z,103241.81
2019-02-22T04:01:45.242Z,103242.09
2019-02-22T04:02:46.109Z,103241.73
2019-02-22T04:03:46.691Z,103241.64
2019-02-22T04:04:47.248Z,103241.48
2019-02-22T04:05:47.814Z,103241.30
2019-02-22T04:06:48.356Z,103241.82
2019-02-22T04:07:48.927Z,103241.80
2019-02-22T04:08:49.777Z,103241.98
2019-02-22T04:09:50.426Z,103242.00
2019-02-22T04:10:51.094Z,103242.15
2019-02-22T04:11:51.816Z,103242.16
2019-02-22T04:12:52.394Z,103242.53
2019-02-22T04:13:53.155Z,103242.62
2019-02-22T04:14:53.799Z,103242.54
2019-02-22T04:15:54.492Z,103242.72
2019-02-22T04:16:55.308Z,103242.37
2019-02-22T04:17:55.853Z,103242.61
2019-02-22T04:18:56.358Z,103242.72
2019-02-22T04:19:57.137Z,103242.63
2019-02-22T04:20:57.714Z,103242.87
2019-02-22T04:21:58.450Z,103243.20
2019-02-22T04:22:58.990Z,103243.37
2019-02-22T04:23:59.618Z,103243.03
2019-02-22T04:25:00.571Z,103243.37
2019-02-22T04:26:00.265Z,103243.28
2019-02-22T04:27:01.439Z,103243.78
2019-02-22T04:28:02.207Z,103243.89
2019-02-22T04:29:01.792Z,103243.80
2019-02-22T04:30:03.502Z,103243.54
2019-02-22T04:31:04.468Z,103242.97
2019-02-22T04:32:04.644Z,103242.88
2019-02-22T04:33:05.311Z,103243.22
2019-02-22T04:34:06.124Z,103242.95
2019-02-22T04:35:06.685Z,103242.52
2019-02-22T04:36:07.332Z,103242.12
2019-02-22T04:36:17.405Z,103249.78
2019-02-22T04:37:18.864Z,103249.35
2019-02-22T04:38:19.110Z,103250.13
2019-02-22T04:39:19.735Z,103250.29
2019-02-22T04:40:20.527Z,103250.44
2019-02-22T04:41:21.165Z,103250.03
2019-02-22T04:42:21.658Z,103250.28
2019-02-22T04:43:22.321Z,103249.95
2019-02-22T04:44:23.034Z,103249.80
2019-02-22T04:45:23.460Z,103249.63
2019-02-22T04:46:23.644Z,103249.38
2019-02-22T04:47:24.114Z,103249.45
2019-02-22T04:48:24.647Z,103250.03
2019-02-22T04:49:25.364Z,103250.62
2019-02-22T04:50:25.086Z,103251.09
2019-02-22T04:51:26.629Z,103251.27
2019-02-22T04:52:27.099Z,103251.84
2019-02-22T04:53:27.886Z,103251.84
2019-02-22T04:54:28.566Z,103252.45
2019-02-22T04:55:29.424Z,103252.45
2019-02-22T04:56:28.701Z,103252.79
2019-02-22T04:57:30.259Z,103252.70
2019-02-22T04:58:30.284Z,103253.20
2019-02-22T04:59:30.944Z,103253.63
2019-02-22T05:00:31.548Z,103253.95
2019-02-22T05:01:32.442Z,103254.47
2019-02-22T05:02:33.050Z,103255.47
2019-02-22T05:03:33.654Z,103256.50
2019-02-22T05:04:34.341Z,103257.27
2019-02-22T05:05:35.025Z,103258.34
2019-02-22T05:06:35.644Z,103259.53
2019-02-22T05:07:36.458Z,103260.47
2019-02-22T05:08:37.083Z,103261.63
2019-02-22T05:09:37.825Z,103262.55
2019-02-22T05:10:38.695Z,103263.48
2019-02-22T05:11:38.397Z,103264.94
2019-02-22T05:12:40.223Z,103266.36
2019-02-22T05:13:39.882Z,103267.02
2019-02-22T05:14:41.520Z,103268.39
2019-02-22T05:15:41.059Z,103269.12
2019-02-22T05:16:42.296Z,103270.40
2019-02-22T05:17:42.927Z,103271.50
2019-02-22T05:18:43.512Z,103273.11
2019-02-22T05:19:43.505Z,103273.79
2019-02-22T05:20:44.420Z,103274.97
2019-02-22T05:21:45.270Z,103276.05
2019-02-22T05:22:46.230Z,103277.22
2019-02-22T05:23:46.950Z,103278.15
2019-02-22T05:23:55.969Z,103293.14
2019-02-22T05:24:56.978Z,103292.73
2019-02-22T05:25:56.988Z,103292.91
2019-02-22T05:26:57.834Z,103292.31
2019-02-22T05:27:58.627Z,103292.14
2019-02-22T05:28:58.674Z,103291.71
2019-02-22T05:29:59.320Z,103291.45
2019-02-22T05:31:00.053Z,103290.79
2019-02-22T05:32:00.609Z,103290.86
2019-02-22T05:33:01.238Z,103290.80
2019-02-22T05:34:02.120Z,103291.55
2019-02-22T05:35:02.604Z,103292.20
2019-02-22T05:36:03.094Z,103292.73
2019-02-22T05:37:03.960Z,103293.72
2019-02-22T05:38:04.528Z,103295.01
2019-02-22T05:39:05.179Z,103295.83
2019-02-22T05:40:06.024Z,103297.09
2019-02-22T05:41:06.805Z,103297.77
2019-02-22T05:42:07.600Z,103299.03
2019-02-22T05:43:08.172Z,103300.31
2019-02-22T05:44:08.753Z,103301.74
2019-02-22T05:45:08.800Z,103303.00
2019-02-22T05:46:09.704Z,103303.91
2019-02-22T05:47:09.758Z,103305.03
2019-02-22T05:48:10.462Z,103306.29
2019-02-22T05:49:11.342Z,103307.80
2019-02-22T05:50:12.004Z,103309.16
2019-02-22T05:51:12.062Z,103310.04
2019-02-22T05:52:12.476Z,103310.89
2019-02-22T05:53:12.663Z,103312.39
2019-02-22T05:54:13.453Z,103312.89
2019-02-22T05:55:14.061Z,103314.16
2019-02-22T05:56:14.820Z,103315.19
2019-02-22T05:57:15.527Z,103315.92
2019-02-22T05:58:15.588Z,103316.94
2019-02-22T05:59:16.210Z,103317.71
2019-02-22T06:00:16.784Z,103318.81
2019-02-22T06:01:17.492Z,103319.54
2019-02-22T06:02:18.088Z,103320.30
2019-02-22T06:03:18.642Z,103321.06
2019-02-22T06:04:19.341Z,103321.83
2019-02-22T06:05:20.248Z,103322.33
2019-02-22T06:06:21.373Z,103322.66
2019-02-22T06:07:20.676Z,103323.59
2019-02-22T06:08:22.695Z,103324.69
2019-02-22T06:09:23.204Z,103325.59
2019-02-22T06:09:32.234Z,103342.77
2019-02-22T06:10:33.729Z,103342.44
2019-02-22T06:11:34.588Z,103342.01
2019-02-22T06:12:35.227Z,103342.01
2019-02-22T06:13:34.752Z,103342.01
2019-02-22T06:14:36.246Z,103342.09
2019-02-22T06:15:36.853Z,103341.77
2019-02-22T06:16:37.330Z,103342.09
2019-02-22T06:17:38.020Z,103342.34
2019-02-22T06:18:38.575Z,103342.07
2019-02-22T06:19:39.012Z,103342.59
2019-02-22T06:20:39.861Z,103343.03
2019-02-22T06:21:40.685Z,103342.92
2019-02-22T06:22:40.331Z,103342.94
2019-02-22T06:23:41.990Z,103342.92
2019-02-22T06:24:42.452Z,103342.95
2019-02-22T06:25:43.015Z,103343.29
2019-02-22T06:26:43.867Z,103343.03
2019-02-22T06:27:44.701Z,103343.45
2019-02-22T06:28:45.000Z,103344.48
2019-02-22T06:29:45.794Z,103345.64
2019-02-22T06:30:46.445Z,103345.91
2019-02-22T06:31:47.060Z,103346.91
2019-02-22T06:32:48.020Z,103348.01
2019-02-22T06:33:47.430Z,103349.11
2019-02-22T06:34:48.094Z,103349.84
2019-02-22T06:35:49.093Z,103350.78
2019-02-22T06:37:00.747Z,103352.16
2019-02-22T06:37:49.654Z,103353.00
2019-02-22T06:38:51.497Z,103354.74
2019-02-22T06:39:52.224Z,103355.84
2019-02-22T06:40:52.940Z,103356.78
2019-02-22T06:41:53.563Z,103357.89
2019-02-22T06:42:54.124Z,103358.80
2019-02-22T06:43:54.621Z,103358.80
2019-02-22T06:44:55.228Z,103359.90
2019-02-22T06:45:55.710Z,103360.73
2019-02-22T06:46:56.257Z,103361.58
2019-02-22T06:47:56.792Z,103362.69
2019-02-22T06:48:57.220Z,103363.53
2019-02-22T06:49:57.700Z,103365.11
2019-02-22T06:50:58.536Z,103366.38
2019-02-22T06:51:59.227Z,103367.66
2019-02-22T06:52:59.825Z,103368.59
2019-02-22T06:54:00.533Z,103369.33
2019-02-22T06:55:01.156Z,103370.09
2019-02-22T06:56:01.699Z,103371.30
2019-02-22T06:57:01.769Z,103371.70
2019-02-22T06:58:02.292Z,103372.72
2019-02-22T06:59:02.778Z,103374.06
2019-02-22T07:00:03.689Z,103376.02
2019-02-22T07:00:12.730Z,103398.44
2019-02-22T07:01:14.191Z,103398.00
2019-02-22T07:02:14.702Z,103398.84
2019-02-22T07:03:15.382Z,103398.58
2019-02-22T07:04:15.944Z,103399.09
2019-02-22T07:05:16.341Z,103399.42
2019-02-22T07:06:16.936Z,103400.27
2019-02-22T07:07:17.576Z,103400.77
2019-02-22T07:08:17.127Z,103401.27
2019-02-22T07:09:18.876Z,103401.78
2019-02-22T07:10:19.570Z,103402.02
2019-02-22T07:11:20.011Z,103402.70
2019-02-22T07:12:20.575Z,103403.48
2019-02-22T07:13:21.094Z,103404.33
2019-02-22T07:14:21.738Z,103405.31
2019-02-22T07:15:22.294Z,103406.56
2019-02-22T07:16:22.428Z,103407.26
2019-02-22T07:17:23.170Z,103408.69
2019-02-22T07:18:22.713Z,103410.20
2019-02-22T07:19:23.960Z,103411.28
2019-02-22T07:20:24.683Z,103413.30
2019-02-22T07:21:25.172Z,103414.47
2019-02-22T07:22:24.862Z,103415.98
2019-02-22T07:23:26.586Z,103417.99
2019-02-22T07:24:27.107Z,103419.11
2019-02-22T07:25:27.924Z,103421.22
2019-02-22T07:26:28.568Z,103422.05
2019-02-22T07:27:29.567Z,103423.45
2019-02-22T07:28:30.268Z,103424.64
2019-02-22T07:29:30.703Z,103425.84
2019-02-22T07:30:31.373Z,103427.00
2019-02-22T07:31:32.121Z,103427.52
2019-02-22T07:32:32.776Z,103428.43
2019-02-22T07:33:32.884Z,103429.34
2019-02-22T07:34:33.321Z,103430.36
2019-02-22T07:35:34.072Z,103431.47
2019-02-22T07:36:34.397Z,103432.91
2019-02-22T07:37:34.890Z,103433.58
2019-02-22T07:38:35.479Z,103434.66
2019-02-22T07:39:36.193Z,103435.33
2019-02-22T07:40:36.210Z,103436.27
2019-02-22T07:41:36.862Z,103436.70
2019-02-22T07:42:37.686Z,103437.70
2019-02-22T07:43:38.469Z,103437.95
2019-02-22T07:44:39.087Z,103438.62
2019-02-22T07:45:39.742Z,103438.88
2019-02-22T07:46:40.543Z,103439.14
2019-02-22T07:46:49.650Z,103446.74
2019-02-22T07:47:51.487Z,103446.48
2019-02-22T07:48:52.216Z,103446.65
2019-02-22T07:49:52.790Z,103446.81
2019-02-22T07:50:57.567Z,103447.32
2019-02-22T07:51:53.424Z,103448.00
2019-02-22T07:52:55.400Z,103448.16
2019-02-22T07:53:55.931Z,103448.26
2019-02-22T07:54:56.579Z,103448.28
2019-02-22T07:55:57.241Z,103448.27
2019-02-22T07:56:57.663Z,103448.70
2019-02-22T07:57:58.150Z,103448.76
2019-02-22T07:58:58.179Z,103449.45
2019-02-22T07:59:58.734Z,103449.61
2019-02-22T08:00:59.506Z,103449.20
2019-02-22T08:02:00.326Z,103449.63
2019-02-22T08:03:01.260Z,103449.22
2019-02-22T08:04:01.811Z,103449.55
2019-02-22T08:05:02.717Z,103449.90
2019-02-22T08:06:03.566Z,103449.95
2019-02-22T08:07:03.037Z,103450.31
2019-02-22T08:08:04.595Z,103451.41
2019-02-22T08:09:05.412Z,103451.73
2019-02-22T08:10:06.160Z,103452.52
2019-02-22T08:11:05.399Z,103453.02
2019-02-22T08:12:06.627Z,103453.70
2019-02-22T08:13:07.416Z,103454.37
2019-02-22T08:14:08.114Z,103455.30
2019-02-22T08:15:07.986Z,103455.82
2019-02-22T08:16:09.520Z,103457.00
2019-02-22T08:17:10.045Z,103457.94
2019-02-22T08:18:10.750Z,103459.12
2019-02-22T08:19:11.512Z,103459.88
2019-02-22T08:20:11.357Z,103460.97
2019-02-22T08:21:13.180Z,103461.83
2019-02-22T08:22:13.851Z,103462.66
2019-02-22T08:23:14.506Z,103463.35
2019-02-22T08:24:15.244Z,103464.35
2019-02-22T08:25:15.887Z,103465.52
2019-02-22T08:26:16.472Z,103466.28
2019-02-22T08:27:17.266Z,103466.84
2019-02-22T08:28:17.977Z,103467.94
2019-02-22T08:29:18.802Z,103468.35
2019-02-22T08:29:27.818Z,103487.22
2019-02-22T08:30:29.282Z,103486.78
2019-02-22T08:31:29.348Z,103486.95
2019-02-22T08:32:30.017Z,103487.97
2019-02-22T08:33:30.976Z,103488.47
2019-02-22T08:34:31.777Z,103488.91
2019-02-22T08:35:31.892Z,103489.33
2019-02-22T08:36:32.598Z,103489.73
2019-02-22T08:37:33.211Z,103490.16
2019-02-22T08:38:33.855Z,103490.94
2019-02-22T08:39:34.349Z,103491.94
2019-02-22T08:40:34.789Z,103492.96
2019-02-22T08:41:35.194Z,103493.53
2019-02-22T08:42:35.691Z,103494.05
2019-02-22T08:43:36.444Z,103495.05
2019-02-22T08:44:36.635Z,103496.02
2019-02-22T08:45:37.457Z,103496.67
2019-02-22T08:46:38.062Z,103497.93
2019-02-22T08:47:38.639Z,103497.95
2019-02-22T08:48:39.473Z,103499.05
2019-02-22T08:49:40.367Z,103499.38
2019-02-22T08:50:41.015Z,103500.66
2019-02-22T08:51:41.798Z,103501.40
2019-02-22T08:52:41.528Z,103502.27
2019-02-22T08:53:43.004Z,103503.27
2019-02-22T08:54:47.009Z,103503.86
2019-02-22T08:55:43.440Z,103504.86
2019-02-22T08:56:45.175Z,103505.55
2019-02-22T08:57:45.770Z,103506.05
2019-02-22T08:58:46.505Z,103506.91
2019-02-22T08:59:47.134Z,103507.91
2019-02-22T09:00:47.090Z,103508.77
2019-02-22T09:01:47.643Z,103509.77
2019-02-22T09:02:47.671Z,103510.86
2019-02-22T09:03:50.952Z,103512.16
2019-02-22T09:04:47.459Z,103513.52
2019-02-22T09:05:48.918Z,103514.84
2019-02-22T09:06:52.237Z,103516.19
2019-02-22T09:07:49.145Z,103517.20
2019-02-22T09:08:50.886Z,103518.49
2019-02-22T09:09:51.669Z,103519.84
2019-02-22T09:11:00.546Z,103521.46
2019-02-22T09:11:52.216Z,103523.05
2019-02-22T09:12:53.971Z,103524.93
2019-02-22T09:13:54.138Z,103526.34
2019-02-22T09:14:54.651Z,103528.81
2019-02-22T09:15:55.262Z,103530.67
2019-02-22T09:16:55.371Z,103532.63
2019-02-22T09:17:55.895Z,103533.97
2019-02-22T09:18:04.933Z,103556.73
2019-02-22T09:19:06.411Z,103555.80
2019-02-22T09:20:06.945Z,103555.13
2019-02-22T09:21:07.438Z,103555.30
2019-02-22T09:22:07.892Z,103554.86
2019-02-22T09:23:08.625Z,103554.86
2019-02-22T09:24:09.103Z,103554.95
2019-02-22T09:25:08.660Z,103554.80
2019-02-22T09:26:10.334Z,103554.80
2019-02-22T09:27:10.844Z,103554.20
2019-02-22T09:28:11.588Z,103553.59
2019-02-22T09:29:12.348Z,103554.22
2019-02-22T09:30:13.119Z,103554.38
2019-02-22T09:31:14.057Z,103554.56
2019-02-22T09:32:14.931Z,103555.14
2019-02-22T09:33:15.612Z,103555.56
2019-02-22T09:34:16.201Z,103556.31
2019-02-22T09:35:17.005Z,103556.73
2019-02-22T09:36:17.472Z,103557.42
2019-02-22T09:37:18.238Z,103557.59
2019-02-22T09:38:18.963Z,103557.86
2019-02-22T09:39:19.530Z,103558.30
2019-02-22T09:40:20.442Z,103558.89
2019-02-22T09:41:21.254Z,103559.55
2019-02-22T09:42:21.814Z,103560.31
2019-02-22T09:43:22.365Z,103560.83
2019-02-22T09:44:22.826Z,103561.52
2019-02-22T09:45:24.567Z,103562.30
2019-02-22T09:46:23.141Z,103563.05
2019-02-22T09:47:24.599Z,103563.82
2019-02-22T09:48:25.324Z,103564.83
2019-02-22T09:49:25.901Z,103565.50
2019-02-22T09:50:26.382Z,103566.38
2019-02-22T09:51:27.074Z,103566.88
2019-02-22T09:52:27.099Z,103567.30
2019-02-22T09:53:27.642Z,103568.06
2019-02-22T09:54:28.137Z,103568.31
2019-02-22T09:55:28.762Z,103568.57
2019-02-22T09:56:29.438Z,103568.75
2019-02-22T09:57:30.174Z,103569.53
2019-02-22T09:58:30.857Z,103570.02
2019-02-22T09:59:31.569Z,103570.53
2019-02-22T10:00:32.329Z,103571.22
2019-02-22T10:01:33.017Z,103571.97
2019-02-22T10:02:33.567Z,103572.39
2019-02-22T10:03:33.911Z,103573.27
2019-02-22T10:03:43.457Z,103580.91
2019-02-22T10:04:54.538Z,103580.73
2019-02-22T10:05:44.605Z,103580.62
2019-02-22T10:06:46.368Z,103580.55
2019-02-22T10:07:47.079Z,103580.62
2019-02-22T10:08:46.847Z,103580.45
2019-02-22T10:09:48.423Z,103580.72
2019-02-22T10:10:49.096Z,103580.81
2019-02-22T10:11:49.707Z,103580.30
2019-02-22T10:12:50.362Z,103580.62
2019-02-22T10:13:51.319Z,103580.64
2019-02-22T10:14:52.229Z,103580.23
2019-02-22T10:15:53.030Z,103580.38
2019-02-22T10:16:53.742Z,103580.28
2019-02-22T10:17:54.541Z,103580.56
2019-02-22T10:18:55.066Z,103580.90
2019-02-22T10:19:55.539Z,103581.58
2019-02-22T10:20:56.023Z,103582.25
2019-02-22T10:21:57.650Z,103582.77
2019-02-22T10:22:56.200Z,103583.09
2019-02-22T10:23:57.725Z,103583.33
2019-02-22T10:24:58.305Z,103583.67
2019-02-22T10:25:59.092Z,103583.61
2019-02-22T10:26:59.919Z,103583.91
2019-02-22T10:28:00.568Z,103583.35
2019-02-22T10:28:59.947Z,103583.41
2019-02-22T10:30:01.741Z,103582.83
2019-02-22T10:31:02.010Z,103583.08
2019-02-22T10:32:02.221Z,103582.82
2019-02-22T10:33:02.395Z,103583.07
2019-02-22T10:34:02.235Z,103583.16
2019-02-22T10:35:06.939Z,103583.26
2019-02-22T10:36:03.360Z,103583.75
2019-02-22T10:37:03.833Z,103584.25
2019-02-22T10:38:05.449Z,103584.83
2019-02-22T10:39:06.267Z,103585.59
2019-02-22T10:40:05.878Z,103585.66
2019-02-22T10:41:07.491Z,103586.34
2019-02-22T10:42:08.312Z,103587.28
2019-02-22T10:43:08.917Z,103588.02
2019-02-22T10:44:17.364Z,103588.78
2019-02-22T10:45:09.449Z,103589.52
2019-02-22T10:46:11.127Z,103590.30
2019-02-22T10:47:12.074Z,103590.80
2019-02-22T10:48:12.533Z,103591.70
2019-02-22T10:49:13.195Z,103592.13
2019-02-22T10:50:14.098Z,103592.12
2019-02-22T10:51:14.989Z,103592.19
2019-02-22T10:52:15.632Z,103592.27
2019-02-22T10:53:16.204Z,103592.26
2019-02-22T10:54:17.149Z,103592.41
2019-02-22T10:54:26.631Z,103605.95
2019-02-22T10:55:27.753Z,103605.22
2019-02-22T10:56:28.564Z,103605.02
2019-02-22T10:57:27.909Z,103604.33
2019-02-22T10:58:29.671Z,103603.83
2019-02-22T10:59:31.262Z,103602.98
2019-02-22T11:00:30.923Z,103602.13
2019-02-22T11:01:32.601Z,103601.93
2019-02-22T11:02:31.744Z,103601.48
2019-02-22T11:03:32.457Z,103600.44
2019-02-22T11:04:33.092Z,103598.97
2019-02-22T11:05:33.626Z,103598.36
2019-02-22T11:06:34.241Z,103597.61
2019-02-22T11:07:37.149Z,103596.73
2019-02-22T11:08:34.706Z,103595.98
2019-02-22T11:09:36.391Z,103595.38
2019-02-22T11:10:37.337Z,103595.06
2019-02-22T11:11:38.014Z,103594.30
2019-02-22T11:12:38.155Z,103594.06
2019-02-22T11:13:39.200Z,103593.05
2019-02-22T11:14:38.127Z,103592.56
2019-02-22T11:15:39.956Z,103591.56
2019-02-22T11:16:39.639Z,103591.08
2019-02-22T11:17:41.522Z,103590.48
2019-02-22T11:18:41.140Z,103589.84
2019-02-22T11:19:42.760Z,103588.91